Time;durP1;ratioP1;P1;durP2;ratioP2;P2;SDS_P1;SDS_P2;PMS_P1;PMS_P2;Temp;Humidity;BMP_temperature;BMP_pressure;BME280_temperature;BME280_humidity;BME280_pressure;Samples;Min_cycle;Max_cycle;Signal;HPM_P1;HPM_P2
2024/04/22 00:00:44;;;;;;;4.20;2.40;;;;;;;0.13;74.71;100202.63;217300;1260;140137;-68
2024/04/22 00:05:55;;;;;;;6.20;4.00;;;;;;;0.08;74.78;100206.13;217376;1260;139944;-67
2024/04/22 00:11:04;;;;;;;8.60;3.80;;;;;;;0.04;74.79;100208.83;217385;1261;139876;-67
2024/04/22 00:16:05;;;;;;;6.20;3.80;;;;;;;-0.01;74.71;100205.34;217509;1261;140932;-66
2024/04/22 00:21:07;;;;;;;4.10;3.20;;;;;;;-0.07;74.96;100205.35;217413;1258;139942;-66
2024/04/22 00:26:08;;;;;;;5.60;3.40;;;;;;;-0.11;75.01;100205.11;217456;1263;140032;-66
2024/04/22 00:31:09;;;;;;;8.60;4.50;;;;;;;-0.16;75.32;100207.56;217648;1257;140784;-66
2024/04/22 00:36:11;;;;;;;8.10;3.30;;;;;;;-0.23;75.28;100208.21;217952;1260;141549;-67
2024/04/22 00:41:13;;;;;;;11.30;4.50;;;;;;;-0.30;75.23;100206.69;217285;1261;140934;-67
2024/04/22 00:46:15;;;;;;;4.40;4.00;;;;;;;-0.35;75.40;100203.19;217336;1262;140717;-68
2024/04/22 00:51:17;;;;;;;3.90;3.60;;;;;;;-0.41;75.59;100205.64;217307;1262;140364;-66
2024/04/22 00:56:19;;;;;;;6.30;4.70;;;;;;;-0.48;75.45;100205.83;218192;1259;140561;-66
2024/04/22 01:01:22;;;;;;;7.50;4.20;;;;;;;-0.57;75.48;100207.42;217464;1261;140197;-65
2024/04/22 01:06:24;;;;;;;8.30;5.00;;;;;;;-0.63;75.82;100203.54;219296;1260;140538;-67
2024/04/22 01:11:26;;;;;;;6.50;4.50;;;;;;;-0.66;75.78;100200.20;217987;1258;140203;-66
2024/04/22 01:16:27;;;;;;;6.00;4.50;;;;;;;-0.69;76.08;100195.73;217083;1262;141299;-66
2024/04/22 01:21:29;;;;;;;6.10;3.80;;;;;;;-0.73;76.04;100193.14;217274;1261;140230;-66
2024/04/22 01:26:30;;;;;;;7.90;4.20;;;;;;;-0.80;76.02;100197.36;217208;1262;140702;-67
2024/04/22 01:31:33;;;;;;;6.10;4.80;;;;;;;-0.87;76.14;100198.02;217229;1257;141118;-69
2024/04/22 01:36:40;;;;;;;8.90;6.40;;;;;;;-0.96;76.18;100201.38;217153;1261;140947;-65
2024/04/22 01:41:43;;;;;;;;;;;;;;;-1.05;76.16;100196.06;217000;1262;142795;-65
2024/04/22 01:46:45;;;;;;;8.00;5.40;;;;;;;-1.10;76.62;100198.85;218296;1260;129881;-66
2024/04/22 01:51:47;;;;;;;9.90;4.60;;;;;;;-1.14;76.58;100200.80;217288;1261;139941;-65
2024/04/22 01:56:49;;;;;;;10.70;6.20;;;;;;;-1.17;76.82;100197.10;217728;1260;141074;-66
2024/04/22 02:01:51;;;;;;;9.30;4.80;;;;;;;-1.23;76.89;100199.92;217132;1262;140562;-65
2024/04/22 02:06:53;;;;;;;8.50;5.30;;;;;;;-1.30;76.91;100195.61;217437;1256;140348;-65
2024/04/22 02:11:56;;;;;;;12.60;6.00;;;;;;;-1.37;76.84;100198.31;217029;1261;141406;-65
2024/04/22 02:16:58;;;;;;;8.20;5.00;;;;;;;-1.42;77.08;100195.64;217260;1263;142085;-65
2024/04/22 02:21:59;;;;;;;9.80;5.10;;;;;;;-1.46;77.37;100194.27;217051;1260;142600;-66
2024/04/22 02:27:01;;;;;;;7.30;4.50;;;;;;;-1.49;77.31;100194.07;217460;1257;140392;-68
2024/04/22 02:32:03;;;;;;;7.40;4.70;;;;;;;-1.53;77.54;100187.04;217019;1262;139844;-65
2024/04/22 02:37:04;;;;;;;10.80;5.30;;;;;;;-1.58;77.58;100186.30;217103;1262;139978;-65
2024/04/22 02:42:07;;;;;;;7.40;5.10;;;;;;;-1.61;77.93;100190.55;218431;1260;140729;-66
2024/04/22 02:47:09;;;;;;;10.90;5.70;;;;;;;-1.63;78.10;100186.17;218057;1260;140858;-64
2024/04/22 02:52:10;;;;;;;5.40;4.50;;;;;;;-1.61;78.22;100183.10;217635;1258;140637;-65
2024/04/22 02:57:14;;;;;;;10.10;5.20;;;;;;;-1.62;78.22;100180.88;218324;1261;141144;-64
2024/04/22 03:02:15;;;;;;;5.70;3.80;;;;;;;-1.66;78.20;100181.44;217346;1258;140426;-65
2024/04/22 03:07:17;;;;;;;8.50;4.20;;;;;;;-1.70;78.10;100177.82;217339;1257;141349;-65
2024/04/22 03:12:18;;;;;;;8.30;4.30;;;;;;;-1.77;78.31;100170.58;218240;1257;140830;-66
2024/04/22 03:17:20;;;;;;;9.40;5.40;;;;;;;-1.81;78.46;100171.12;220331;1257;140455;-67
2024/04/22 03:22:21;;;;;;;7.40;4.20;;;;;;;-1.83;78.60;100167.54;218900;1257;140515;-70
2024/04/22 03:27:23;;;;;;;7.40;4.30;;;;;;;-1.82;78.77;100167.94;217662;1260;140072;-67
2024/04/22 03:32:25;;;;;;;9.30;5.70;;;;;;;-1.78;78.98;100167.42;217367;1257;140512;-64
2024/04/22 03:37:27;;;;;;;6.60;5.30;;;;;;;-1.72;79.44;100169.44;218023;1257;140991;-64
2024/04/22 03:42:29;;;;;;;9.10;5.80;;;;;;;-1.65;79.85;100170.70;218276;1257;140578;-65
2024/04/22 03:52:52;;;;;;;10.50;6.10;;;;;;;-1.48;80.09;100178.11;218017;1257;140365;-64
2024/04/22 03:57:53;;;;;;;8.90;5.80;;;;;;;-1.38;79.91;100173.15;217283;1260;141112;-69
2024/04/22 04:02:55;;;;;;;6.30;5.60;;;;;;;-1.29;80.07;100168.68;217597;1258;142399;-67
2024/04/22 04:07:56;;;;;;;7.80;6.30;;;;;;;-1.18;80.43;100165.29;217378;1259;140598;-66
2024/04/22 04:12:58;;;;;;;12.60;8.70;;;;;;;-1.09;80.32;100161.97;217481;1260;140080;-68
2024/04/22 04:18:00;;;;;;;19.10;8.80;;;;;;;-1.03;80.26;100157.22;217747;1260;140212;-65
2024/04/22 04:23:01;;;;;;;10.80;6.70;;;;;;;-0.93;80.57;100155.74;217682;1258;140988;-67
2024/04/22 04:28:03;;;;;;;13.00;6.70;;;;;;;-0.83;80.51;100149.77;216997;1257;140909;-68
2024/04/22 04:33:04;;;;;;;13.70;7.50;;;;;;;-0.74;80.45;100140.88;218499;1257;141249;-65
2024/04/22 04:38:06;;;;;;;9.00;6.40;;;;;;;-0.62;80.51;100130.06;217926;1260;141231;-65
2024/04/22 04:43:08;;;;;;;11.80;6.50;;;;;;;-0.51;80.83;100127.55;217782;1260;140348;-65
2024/04/22 04:48:10;;;;;;;11.30;6.90;;;;;;;-0.39;80.73;100132.81;217251;1257;141371;-65
2024/04/22 04:53:12;;;;;;;7.00;5.20;;;;;;;-0.30;80.90;100132.28;220279;1257;141239;-67
2024/04/22 04:58:14;;;;;;;10.70;5.60;;;;;;;-0.21;80.46;100134.17;217991;1257;208485;-68
2024/04/22 05:03:16;;;;;;;8.20;5.00;;;;;;;-0.10;80.83;100142.49;219295;1256;142709;-67
2024/04/22 05:08:18;;;;;;;8.30;4.50;;;;;;;0.00;80.49;100145.58;217541;1257;141171;-68
2024/04/22 05:13:19;;;;;;;6.90;4.90;;;;;;;0.08;80.56;100144.30;219652;1257;140522;-67
2024/04/22 05:18:20;;;;;;;5.10;3.40;;;;;;;0.19;80.99;100151.90;218488;1257;140869;-68
2024/04/22 05:23:22;;;;;;;8.40;4.70;;;;;;;0.25;80.59;100155.47;217558;1257;140673;-66
2024/04/22 05:28:26;;;;;;;5.10;4.30;;;;;;;0.30;80.59;100153.67;217166;1258;140892;-66
2024/04/22 05:39:29;;;;;;;8.00;5.30;;;;;;;0.46;80.49;100157.70;216554;1264;140053;-67
2024/04/22 05:44:31;;;;;;;6.90;5.50;;;;;;;0.52;80.77;100162.05;217310;1257;140826;-66
2024/04/22 05:49:33;;;;;;;5.90;4.30;;;;;;;0.60;81.04;100164.69;217222;1257;141380;-66
2024/04/22 05:54:34;;;;;;;13.90;4.80;;;;;;;0.67;80.80;100167.78;217656;1256;140588;-66
2024/04/22 05:59:36;;;;;;;7.60;5.20;;;;;;;0.74;80.37;100167.05;218070;1256;140616;-66
2024/04/22 06:04:38;;;;;;;7.00;5.00;;;;;;;0.84;80.50;100168.85;217182;1257;140284;-65
2024/04/22 06:09:39;;;;;;;6.90;5.60;;;;;;;0.94;80.75;100179.25;217416;1260;139754;-65
2024/04/22 06:14:41;;;;;;;7.80;5.00;;;;;;;1.00;80.54;100188.61;217237;1258;140016;-65
2024/04/22 06:19:42;;;;;;;8.10;5.00;;;;;;;1.05;80.86;100196.40;217597;1257;140009;-63
2024/04/22 06:24:43;;;;;;;7.50;6.10;;;;;;;1.11;80.83;100201.50;217985;1257;140076;-68
2024/04/22 06:29:47;;;;;;;7.40;5.50;;;;;;;1.18;80.63;100199.25;218000;1256;140549;-70
2024/04/22 06:34:50;;;;;;;8.50;6.00;;;;;;;1.23;80.69;100197.00;217441;1259;140310;-67
2024/04/22 06:39:51;;;;;;;6.50;4.40;;;;;;;1.29;80.57;100197.96;218699;1257;140997;-70
2024/04/22 06:44:54;;;;;;;9.60;5.90;;;;;;;1.39;80.59;100194.49;217611;1257;140079;-67
2024/04/22 06:49:56;;;;;;;6.80;4.80;;;;;;;1.47;80.67;100198.87;218726;1256;140624;-67
2024/04/22 06:54:57;;;;;;;8.10;4.80;;;;;;;1.58;80.71;100201.73;220403;1256;141063;-67
2024/04/22 07:00:00;;;;;;;5.60;4.70;;;;;;;1.70;80.53;100207.58;219172;1257;141503;-68
2024/04/22 07:05:03;;;;;;;4.60;3.90;;;;;;;1.84;80.14;100209.92;220346;1256;140473;-69
2024/04/22 07:10:05;;;;;;;7.50;3.70;;;;;;;1.97;80.21;100213.22;219505;1257;140558;-67
2024/04/22 07:15:07;;;;;;;4.20;3.70;;;;;;;2.11;80.01;100216.55;219275;1257;140902;-67
2024/04/22 07:20:09;;;;;;;8.50;4.00;;;;;;;2.25;79.94;100215.34;217420;1259;141580;-67
2024/04/22 07:25:11;;;;;;;7.60;4.40;;;;;;;2.40;79.49;100214.46;217280;1259;140151;-66
2024/04/22 07:30:13;;;;;;;5.30;4.80;;;;;;;2.51;79.04;100209.89;218219;1260;140274;-67
2024/04/22 07:35:15;;;;;;;4.50;3.70;;;;;;;2.67;78.83;100212.98;217779;1259;140528;-65
2024/04/22 07:40:19;;;;;;;4.80;3.30;;;;;;;2.85;78.69;100218.31;217530;1256;142017;-65
2024/04/22 07:45:20;;;;;;;4.90;3.10;;;;;;;2.97;78.21;100220.46;217815;1256;139748;-65
2024/04/22 07:50:22;;;;;;;3.40;3.00;;;;;;;3.09;77.59;100222.02;217633;1257;222578;-67
2024/04/22 07:55:25;;;;;;;4.30;3.90;;;;;;;3.21;77.38;100225.40;217461;1256;140272;-68
2024/04/22 08:00:28;;;;;;;3.20;2.90;;;;;;;3.23;76.82;100228.06;217204;1257;140027;-68
2024/04/22 08:05:30;;;;;;;5.40;3.50;;;;;;;3.24;76.56;100229.80;217488;1256;140553;-68
2024/04/22 08:10:32;;;;;;;4.50;3.10;;;;;;;3.29;76.20;100231.65;217693;1259;140824;-69
2024/04/22 08:15:34;;;;;;;4.50;2.90;;;;;;;3.34;75.91;100234.20;217227;1257;141214;-69
2024/04/22 08:20:36;;;;;;;3.10;2.40;;;;;;;3.36;75.52;100235.44;217464;1259;141122;-68
2024/04/22 08:25:38;;;;;;;3.40;2.90;;;;;;;3.42;75.49;100237.57;216987;1260;141500;-66
2024/04/22 08:30:40;;;;;;;3.10;2.80;;;;;;;3.56;75.34;100243.30;217518;1259;140866;-66
2024/04/22 08:35:48;;;;;;;3.20;2.90;;;;;;;3.61;74.59;100246.76;217700;1257;139815;-67
2024/04/22 08:40:51;;;;;;;3.50;2.70;;;;;;;3.74;74.61;100244.71;217282;1258;140761;-67
2024/04/22 08:45:53;;;;;;;2.50;2.30;;;;;;;3.84;74.04;100247.98;217289;1260;141754;-69
2024/04/22 08:51:00;;;;;;;3.60;2.80;;;;;;;3.91;73.83;100250.79;217218;1257;140285;-66
2024/04/22 08:56:02;;;;;;;3.50;3.10;;;;;;;3.99;73.46;100248.65;217267;1258;140592;-67
2024/04/22 09:01:07;;;;;;;4.00;2.90;;;;;;;3.93;72.85;100251.46;217347;1257;140874;-69
2024/04/22 09:06:09;;;;;;;2.50;1.70;;;;;;;3.91;72.31;100256.70;217329;1257;140227;-67
2024/04/22 09:11:19;;;;;;;2.00;1.90;;;;;;;3.91;71.75;100258.27;217470;1255;140471;-68
2024/04/22 09:16:21;;;;;;;2.10;1.70;;;;;;;3.95;71.69;100259.04;217711;1259;140617;-66
2024/04/22 09:21:24;;;;;;;1.70;1.60;;;;;;;4.00;71.32;100264.94;217647;1257;140607;-68
2024/04/22 09:26:26;;;;;;;2.10;1.80;;;;;;;4.09;70.96;100263.54;217750;1261;141288;-66
2024/04/22 09:31:29;;;;;;;2.00;1.20;;;;;;;4.15;70.19;100261.90;217189;1258;140270;-68
2024/04/22 09:36:31;;;;;;;2.10;2.00;;;;;;;4.24;69.79;100259.10;217214;1258;141065;-67
2024/04/22 09:41:34;;;;;;;2.00;1.70;;;;;;;4.37;69.74;100258.32;217197;1260;141890;-67
2024/04/22 09:46:38;;;;;;;3.70;2.00;;;;;;;4.50;69.24;100253.05;217782;1257;139811;-70
2024/04/22 09:51:44;;;;;;;5.50;1.70;;;;;;;4.55;68.58;100256.26;217203;1257;139826;-67
2024/04/22 09:56:48;;;;;;;2.20;2.00;;;;;;;4.63;68.41;100259.84;218160;1258;235615;-67
2024/04/22 10:01:49;;;;;;;2.60;1.80;;;;;;;4.65;67.98;100264.38;217097;1257;139915;-70
2024/04/22 10:06:50;;;;;;;1.80;1.50;;;;;;;4.58;67.47;100259.41;217079;1257;140218;-67
2024/04/22 10:11:52;;;;;;;1.70;1.60;;;;;;;4.54;67.51;100257.98;217232;1257;140617;-67
2024/04/22 10:16:59;;;;;;;2.40;1.60;;;;;;;4.58;67.20;100261.40;217313;1257;140681;-68
2024/04/22 10:22:07;;;;;;;1.90;1.70;;;;;;;4.68;67.02;100263.84;218108;1259;140906;-66
2024/04/22 10:27:10;;;;;;;2.90;2.70;;;;;;;4.83;66.74;100265.91;217382;1260;139735;-67
2024/04/22 10:32:13;;;;;;;2.60;1.90;;;;;;;4.97;66.57;100267.49;217291;1257;140052;-66
2024/04/22 10:37:14;;;;;;;2.90;2.50;;;;;;;5.09;66.52;100263.30;218238;1258;140120;-66
2024/04/22 10:42:17;;;;;;;2.40;2.10;;;;;;;5.21;65.94;100264.80;217477;1261;140782;-66
2024/04/22 10:47:20;;;;;;;2.80;2.40;;;;;;;5.29;65.71;100271.63;217676;1257;139498;-68
2024/04/22 10:52:24;;;;;;;5.00;1.80;;;;;;;5.40;65.58;100269.85;217365;1258;139606;-66
2024/04/22 10:57:26;;;;;;;2.70;2.30;;;;;;;5.45;65.31;100273.13;217677;1260;140337;-66
2024/04/22 11:02:28;;;;;;;3.70;2.70;;;;;;;5.36;64.75;100276.84;217162;1258;139918;-69
2024/04/22 11:07:30;;;;;;;2.80;2.40;;;;;;;5.25;64.75;100273.86;217371;1261;140500;-70
2024/04/22 11:12:32;;;;;;;2.60;2.40;;;;;;;5.25;64.50;100282.09;217190;1261;139460;-68
2024/04/22 11:17:33;;;;;;;4.70;3.50;;;;;;;5.23;64.29;100287.42;217679;1257;141862;-69
2024/04/22 11:22:36;;;;;;;3.80;2.60;;;;;;;5.17;63.94;100293.95;217378;1261;140484;-67
2024/04/22 11:27:38;;;;;;;2.80;2.60;;;;;;;5.12;63.94;100295.92;217420;1257;140211;-68
2024/04/22 11:32:39;;;;;;;3.60;2.60;;;;;;;5.12;64.27;100294.67;217207;1261;142564;-68
2024/04/22 11:37:41;;;;;;;3.80;2.40;;;;;;;5.14;64.39;100295.30;217033;1258;373464;-68
2024/04/22 11:42:43;;;;;;;2.30;2.00;;;;;;;5.13;64.57;100295.54;217782;1257;166851;-67
2024/04/22 11:47:45;;;;;;;3.80;2.10;;;;;;;4.97;63.93;100299.43;217417;1259;140687;-66
2024/04/22 11:52:47;;;;;;;4.00;2.80;;;;;;;4.79;63.67;100304.95;217142;1257;141222;-67
2024/04/22 11:57:48;;;;;;;5.10;3.10;;;;;;;4.69;63.82;100300.98;217265;1261;140201;-67
2024/04/22 12:02:49;;;;;;;3.20;2.70;;;;;;;4.79;63.63;100301.63;217763;1261;140658;-67
2024/04/22 12:07:51;;;;;;;5.10;3.00;;;;;;;4.88;63.88;100297.86;217506;1257;140501;-67
2024/04/22 12:12:53;;;;;;;2.80;2.50;;;;;;;5.01;63.62;100297.17;217845;1258;140745;-67
2024/04/22 12:17:55;;;;;;;3.20;2.10;;;;;;;5.21;63.71;100289.80;217245;1260;139961;-65
2024/04/22 12:22:56;;;;;;;3.50;2.50;;;;;;;5.45;63.46;100289.91;217018;1259;140216;-66
2024/04/22 12:27:58;;;;;;;6.20;2.10;;;;;;;5.58;63.18;100290.23;217359;1259;140549;-66
2024/04/22 12:33:00;;;;;;;3.10;2.10;;;;;;;5.62;62.92;100288.09;218414;1258;140113;-67
2024/04/22 12:38:01;;;;;;;4.30;2.20;;;;;;;5.58;62.41;100294.75;219556;1257;141334;-67
2024/04/22 12:43:04;;;;;;;2.10;1.90;;;;;;;5.58;62.40;100296.38;217852;1257;140295;-67
2024/04/22 12:53:27;;;;;;;2.00;1.80;;;;;;;5.57;61.90;100294.24;217429;1260;141249;-68
2024/04/22 12:58:29;;;;;;;3.10;2.90;;;;;;;5.52;62.28;100293.02;217694;1258;141047;-67
2024/04/22 13:03:31;;;;;;;3.80;2.00;;;;;;;5.49;61.73;100293.32;217389;1260;139991;-67
2024/04/22 13:08:33;;;;;;;2.30;1.90;;;;;;;5.48;61.95;100293.08;218678;1257;139774;-66
2024/04/22 13:13:35;;;;;;;2.00;1.80;;;;;;;5.57;61.69;100289.33;217816;1257;141439;-66
2024/04/22 13:18:37;;;;;;;8.30;2.60;;;;;;;5.72;61.65;100285.79;217411;1259;139759;-67
2024/04/22 13:23:39;;;;;;;3.20;3.00;;;;;;;5.92;61.86;100286.04;217461;1259;139789;-67
2024/04/22 13:28:40;;;;;;;2.80;2.30;;;;;;;6.12;61.02;100283.48;217293;1259;138874;-67
2024/04/22 13:33:42;;;;;;;3.00;2.40;;;;;;;6.18;60.81;100283.28;217632;1259;139871;-66
2024/04/22 13:38:43;;;;;;;2.60;2.10;;;;;;;6.23;60.51;100281.13;217450;1259;141522;-67
2024/04/22 13:43:45;;;;;;;2.80;2.40;;;;;;;6.44;60.47;100288.39;217411;1259;140324;-68
2024/04/22 13:48:49;;;;;;;2.80;2.30;;;;;;;6.58;60.55;100285.74;217300;1259;139618;-68
2024/04/22 13:53:51;;;;;;;3.10;2.90;;;;;;;6.68;60.33;100285.56;217228;1261;139154;-68
2024/04/22 13:58:53;;;;;;;3.80;2.90;;;;;;;6.64;60.12;100288.55;217391;1256;139682;-68
2024/04/22 14:03:54;;;;;;;2.90;2.30;;;;;;;6.46;59.81;100294.15;218867;1259;140326;-68
2024/04/22 14:08:56;;;;;;;4.00;2.10;;;;;;;6.28;60.50;100295.09;218227;1256;140109;-68
2024/04/22 14:13:58;;;;;;;2.80;2.60;;;;;;;6.20;60.29;100303.63;217442;1257;139314;-70
2024/04/22 14:18:59;;;;;;;3.50;3.20;;;;;;;6.09;59.89;100305.09;220508;1257;139305;-68
2024/04/22 14:24:01;;;;;;;2.40;2.20;;;;;;;5.97;60.10;100313.63;217711;1257;140463;-67
2024/04/22 14:29:02;;;;;;;2.70;2.50;;;;;;;5.87;60.15;100320.11;217538;1257;139770;-66
2024/04/22 14:34:04;;;;;;;2.80;2.10;;;;;;;5.74;60.17;100329.83;219867;1257;139463;-68
2024/04/22 14:39:06;;;;;;;3.70;2.50;;;;;;;5.65;60.12;100328.92;217326;1256;140522;-67
2024/04/22 14:44:08;;;;;;;3.20;2.40;;;;;;;5.64;60.31;100329.64;217199;1257;139200;-68
2024/04/22 14:49:10;;;;;;;3.90;2.30;;;;;;;5.59;59.99;100334.67;217264;1257;151904;-67
2024/04/22 14:54:12;;;;;;;3.30;2.80;;;;;;;5.51;60.11;100335.16;217254;1257;140229;-65
2024/04/22 14:59:14;;;;;;;3.80;2.50;;;;;;;5.44;60.45;100336.72;217240;1260;139592;-66
2024/04/22 15:04:16;;;;;;;3.20;2.80;;;;;;;5.31;60.47;100341.23;217346;1259;139888;-69
2024/04/22 15:09:17;;;;;;;3.70;2.90;;;;;;;5.15;60.44;100344.71;217600;1259;139573;-68
2024/04/22 15:14:18;;;;;;;2.90;2.60;;;;;;;5.04;60.55;100346.33;217561;1259;139633;-67
2024/04/22 15:19:20;;;;;;;5.60;2.70;;;;;;;5.00;60.92;100347.00;217370;1257;139929;-68
2024/04/22 15:24:22;;;;;;;6.20;3.70;;;;;;;4.96;61.22;100351.01;217706;1259;139773;-68
2024/04/22 15:29:24;;;;;;;4.80;3.90;;;;;;;4.85;61.38;100352.90;217421;1257;140286;-68
2024/04/22 15:34:26;;;;;;;6.80;3.30;;;;;;;4.75;61.24;100357.43;217416;1258;138799;-68
2024/04/22 15:39:28;;;;;;;3.60;2.60;;;;;;;4.73;61.63;100357.05;217516;1259;140085;-69
2024/04/22 15:44:31;;;;;;;5.40;4.90;;;;;;;4.69;61.37;100358.84;217288;1261;139130;-66
2024/04/22 15:49:32;;;;;;;3.90;3.10;;;;;;;4.65;61.64;100355.94;217529;1257;139461;-67
2024/04/22 15:54:34;;;;;;;5.00;4.00;;;;;;;4.59;61.72;100358.25;217403;1258;140897;-66
2024/04/22 15:59:35;;;;;;;3.40;2.60;;;;;;;4.49;61.82;100358.60;217105;1258;139101;-68
2024/04/22 16:04:37;;;;;;;5.80;3.10;;;;;;;4.42;62.22;100357.75;217997;1258;138928;-68
2024/04/22 16:09:39;;;;;;;3.90;3.40;;;;;;;4.36;62.16;100359.30;217602;1259;140291;-67
2024/04/22 16:14:40;;;;;;;5.60;3.90;;;;;;;4.29;62.07;100362.67;217442;1260;140946;-67
2024/04/22 16:19:42;;;;;;;11.00;4.00;;;;;;;4.19;62.06;100363.32;217323;1257;140088;-68
2024/04/22 16:24:44;;;;;;;4.10;3.40;;;;;;;4.18;62.49;100360.30;218076;1261;139553;-66
2024/04/22 16:29:45;;;;;;;14.60;4.30;;;;;;;4.14;62.26;100361.64;217390;1260;139434;-68
2024/04/22 16:34:47;;;;;;;4.40;3.80;;;;;;;4.08;62.38;100361.71;218340;1260;139766;-67
2024/04/22 16:39:49;;;;;;;7.50;4.00;;;;;;;4.05;62.99;100363.48;217445;1261;140199;-67
2024/04/22 16:44:50;;;;;;;4.20;3.70;;;;;;;4.00;62.78;100364.94;217847;1259;139702;-67
2024/04/22 16:49:51;;;;;;;5.00;4.20;;;;;;;3.97;63.34;100365.87;217450;1259;138950;-65
2024/04/22 16:54:52;;;;;;;4.60;3.40;;;;;;;3.94;63.08;100370.73;217107;1257;139731;-67
2024/04/22 16:59:55;;;;;;;3.10;2.60;;;;;;;3.88;63.21;100375.73;217274;1260;140286;-65
2024/04/22 17:04:56;;;;;;;4.50;4.00;;;;;;;3.77;63.15;100380.60;217220;1259;140255;-69
2024/04/22 17:09:58;;;;;;;7.10;4.00;;;;;;;3.69;63.50;100383.05;217608;1257;140500;-67
2024/04/22 17:15:00;;;;;;;5.60;4.50;;;;;;;3.67;63.70;100384.23;217342;1261;140505;-67
2024/04/22 17:20:02;;;;;;;6.20;4.30;;;;;;;3.62;63.65;100387.44;217541;1259;140177;-68
2024/04/22 17:25:04;;;;;;;5.50;3.70;;;;;;;3.55;63.69;100390.34;217443;1260;140992;-68
2024/04/22 17:30:06;;;;;;;6.60;5.80;;;;;;;3.48;63.88;100388.85;217441;1259;141435;-68
2024/04/22 17:35:08;;;;;;;7.30;4.40;;;;;;;3.46;64.13;100392.45;217301;1257;141970;-68
2024/04/22 17:40:10;;;;;;;7.70;5.10;;;;;;;3.44;64.31;100391.84;217148;1259;142120;-67
2024/04/22 17:45:13;;;;;;;7.20;6.20;;;;;;;3.43;64.73;100401.35;217643;1260;140728;-66
2024/04/22 17:50:15;;;;;;;4.70;4.10;;;;;;;3.41;64.84;100395.80;217375;1259;141073;-67
2024/04/22 17:55:17;;;;;;;7.90;4.60;;;;;;;3.36;65.27;100394.45;217723;1259;139970;-67
2024/04/22 18:00:19;;;;;;;6.70;3.60;;;;;;;3.35;65.42;100396.14;217380;1260;139919;-66
2024/04/22 18:05:21;;;;;;;7.30;4.20;;;;;;;3.33;65.72;100395.48;217878;1261;141938;-66
2024/04/22 18:10:23;;;;;;;5.80;4.40;;;;;;;3.31;65.93;100399.95;219450;1257;141336;-69
2024/04/22 18:15:25;;;;;;;10.40;4.10;;;;;;;3.29;65.93;100403.68;218847;1259;140610;-69
2024/04/22 18:20:29;;;;;;;5.30;4.10;;;;;;;3.25;66.05;100411.89;217841;1261;140890;-69
2024/04/22 18:25:32;;;;;;;7.60;4.20;;;;;;;3.22;66.68;100412.65;217658;1259;141014;-69
2024/04/22 18:30:34;;;;;;;9.60;4.30;;;;;;;3.21;67.21;100416.48;217430;1260;140105;-68
2024/04/22 18:35:36;;;;;;;5.80;4.70;;;;;;;3.18;67.12;100419.98;217184;1259;139507;-69
2024/04/22 18:40:39;;;;;;;7.90;5.30;;;;;;;3.14;67.56;100416.07;217331;1259;140199;-66
2024/04/22 18:45:42;;;;;;;7.50;4.90;;;;;;;3.12;67.77;100412.41;217496;1260;139873;-67
2024/04/22 18:50:43;;;;;;;6.20;3.90;;;;;;;3.08;68.08;100416.19;217235;1259;141022;-66
2024/04/22 18:55:45;;;;;;;8.60;5.20;;;;;;;3.02;67.96;100412.08;217489;1261;142410;-67
2024/04/22 19:00:50;;;;;;;9.40;4.80;;;;;;;2.97;68.07;100418.10;217195;1261;139793;-65
2024/04/22 19:05:51;;;;;;;7.90;4.80;;;;;;;2.94;68.33;100416.73;217168;1261;140818;-71
2024/04/22 19:10:53;;;;;;;10.70;5.50;;;;;;;2.93;68.93;100414.20;217698;1259;140147;-65
2024/04/22 19:15:55;;;;;;;7.80;4.10;;;;;;;2.89;68.94;100416.54;217402;1260;140522;-66
2024/04/22 19:20:57;;;;;;;7.10;4.60;;;;;;;2.81;69.21;100417.90;217356;1259;221529;-68
2024/04/22 19:25:59;;;;;;;9.60;4.90;;;;;;;2.73;69.43;100420.95;217414;1261;139953;-65
2024/04/22 19:31:08;;;;;;;6.30;4.60;;;;;;;2.68;69.63;100420.44;218228;1260;140373;-67
2024/04/22 19:36:09;;;;;;;6.60;5.30;;;;;;;2.67;69.97;100424.07;217355;1257;140622;-65
2024/04/22 19:41:11;;;;;;;9.20;5.20;;;;;;;2.67;70.01;100427.95;217184;1260;139867;-66
2024/04/22 19:46:12;;;;;;;10.80;5.80;;;;;;;2.66;70.05;100433.34;217611;1257;140321;-66
2024/04/22 19:51:14;;;;;;;6.70;4.60;;;;;;;2.63;69.88;100430.11;218945;1257;140605;-70
2024/04/22 19:56:16;;;;;;;5.90;5.00;;;;;;;2.60;70.07;100428.34;217167;1258;139766;-66
2024/04/22 20:01:18;;;;;;;10.10;7.50;;;;;;;2.58;70.39;100431.30;217090;1259;140145;-67
2024/04/22 20:06:20;;;;;;;11.30;7.70;;;;;;;2.58;70.38;100438.20;219580;1259;142339;-69
2024/04/22 20:11:22;;;;;;;13.10;6.80;;;;;;;2.58;70.25;100439.26;217283;1260;140491;-68
2024/04/22 20:16:47;;;;;;;11.70;7.00;;;;;;;2.59;70.64;100440.74;217798;1263;140167;-69
2024/04/22 20:21:47;;;;;;;9.10;6.30;;;;;;;2.58;70.79;100440.45;217319;1262;139921;-67
2024/04/22 20:26:49;;;;;;;9.10;5.70;;;;;;;2.54;70.55;100441.99;217267;1264;139829;-65
2024/04/22 20:31:51;;;;;;;10.10;7.50;;;;;;;2.47;70.71;100440.65;217262;1263;140975;-69
2024/04/22 20:36:53;;;;;;;9.90;6.90;;;;;;;2.43;70.71;100438.48;217254;1258;152618;-67
2024/04/22 20:41:54;;;;;;;14.80;7.90;;;;;;;2.41;70.65;100441.09;217337;1261;140874;-69
2024/04/22 20:46:56;;;;;;;11.20;6.10;;;;;;;2.41;71.02;100438.69;217394;1261;140039;-67
2024/04/22 20:52:13;;;;;;;12.80;7.90;;;;;;;2.41;71.03;100440.64;217345;1257;140659;-67
2024/04/22 20:57:18;;;;;;;12.00;8.20;;;;;;;2.40;71.16;100437.21;217399;1260;140364;-66
2024/04/22 21:02:20;;;;;;;11.00;6.80;;;;;;;2.40;71.17;100438.42;217177;1258;140156;-68
2024/04/22 21:07:21;;;;;;;17.30;10.60;;;;;;;2.39;71.22;100438.40;218429;1261;139782;-67
2024/04/22 21:12:23;;;;;;;13.40;8.50;;;;;;;2.36;71.04;100440.60;217270;1257;152070;-68
2024/04/22 21:17:24;;;;;;;17.00;9.60;;;;;;;2.35;71.34;100444.18;217370;1257;140309;-67
2024/04/22 21:22:26;;;;;;;17.60;9.40;;;;;;;2.35;71.51;100444.55;217362;1261;140618;-67
2024/04/22 21:27:28;;;;;;;16.00;8.50;;;;;;;2.34;71.73;100438.46;217546;1257;141048;-68
2024/04/22 21:32:33;;;;;;;15.30;9.80;;;;;;;2.32;71.71;100440.46;217154;1257;140175;-68
2024/04/22 21:37:38;;;;;;;17.10;10.60;;;;;;;2.29;71.84;100444.70;217338;1262;141260;-68
2024/04/22 21:42:40;;;;;;;23.00;10.00;;;;;;;2.27;72.05;100442.53;217225;1257;141330;-66
2024/04/22 21:47:43;;;;;;;15.50;9.70;;;;;;;2.28;72.43;100445.45;217644;1257;141008;-65
2024/04/22 21:52:45;;;;;;;20.40;10.80;;;;;;;2.28;72.54;100443.52;218062;1260;140827;-67
2024/04/22 21:58:24;;;;;;;13.50;9.90;;;;;;;2.27;72.64;100445.25;217646;1257;140425;-66
2024/04/22 22:04:04;;;;;;;20.50;12.90;;;;;;;2.24;72.68;100441.27;218349;1257;140192;-69
2024/04/22 22:09:24;;;;;;;20.20;10.90;;;;;;;2.25;72.68;100437.89;217448;1257;140635;-67
2024/04/22 22:14:26;;;;;;;11.60;8.40;;;;;;;2.24;72.62;100439.43;218327;1257;140391;-66
2024/04/22 22:19:29;;;;;;;12.60;8.40;;;;;;;2.18;72.74;100438.83;218800;1257;142985;-66
2024/04/22 22:24:43;;;;;;;17.00;11.50;;;;;;;2.13;72.74;100442.71;217275;1260;140205;-70
2024/04/22 22:29:46;;;;;;;22.20;11.50;;;;;;;2.14;73.24;100444.52;217336;1257;141047;-67
2024/04/22 22:34:48;;;;;;;15.50;11.20;;;;;;;2.15;73.18;100442.15;217235;1257;139982;-65
2024/04/22 22:39:49;;;;;;;15.10;9.50;;;;;;;2.14;73.49;100439.79;217313;1257;140684;-67
2024/04/22 22:44:51;;;;;;;13.80;9.10;;;;;;;2.06;73.46;100445.02;217030;1257;142555;-67
2024/04/22 22:49:52;;;;;;;16.70;11.50;;;;;;;2.03;73.82;100444.65;217078;1260;140458;-66
2024/04/22 22:54:54;;;;;;;18.70;12.90;;;;;;;2.03;73.83;100444.29;217275;1263;140232;-66
2024/04/22 22:59:56;;;;;;;21.80;14.60;;;;;;;2.02;74.25;100445.98;217388;1257;140395;-67
2024/04/22 23:04:58;;;;;;;14.20;8.70;;;;;;;2.00;74.16;100443.59;217225;1261;141978;-67
2024/04/22 23:09:59;;;;;;;15.70;9.10;;;;;;;1.94;73.86;100436.48;217695;1261;141164;-69
2024/04/22 23:15:01;;;;;;;20.10;10.30;;;;;;;1.86;73.98;100435.23;217203;1260;140478;-66
2024/04/22 23:20:03;;;;;;;23.30;12.40;;;;;;;1.83;74.44;100434.16;217272;1261;141123;-67